Time;durP1;ratioP1;P1;durP2;ratioP2;P2;SDS_P1;SDS_P2;PMS_P1;PMS_P2;Temp;Humidity;BMP_temperature;BMP_pressure;BME280_temperature;BME280_humidity;BME280_pressure;Samples;Min_cycle;Max_cycle;Signal;HPM_P1;HPM_P2
2022/06/08 00:00:09;;;;;;;6.50;2.78;;;;;;;17.37;74.38;99228.59;343909;28;1124;-77
2022/06/08 00:00:24;;;;;;;7.63;3.10;;;;;;;17.38;74.33;99235.53;343525;28;1029;-77
2022/06/08 00:00:37;;;;;;;6.88;2.70;;;;;;;17.37;74.16;99229.44;343462;28;1215;-77
2022/06/08 00:00:54;;;;;;;5.55;2.70;;;;;;;17.36;74.12;99226.91;343868;28;1043;-77
2022/06/08 00:01:06;;;;;;;4.45;2.72;;;;;;;17.38;74.17;99230.28;343500;28;1451;-77
2022/06/08 00:01:20;;;;;;;3.83;2.55;;;;;;;17.38;73.96;99235.53;343527;28;1128;-77
2022/06/08 00:01:33;;;;;;;5.22;2.63;;;;;;;17.40;73.85;99228.38;343624;28;1185;-77
2022/06/08 00:01:46;;;;;;;8.15;2.90;;;;;;;17.42;73.91;99228.28;343588;28;1226;-77
2022/06/08 00:01:58;;;;;;;6.90;2.58;;;;;;;17.41;73.82;99234.50;343670;28;1161;-77
2022/06/08 00:02:13;;;;;;;4.97;2.30;;;;;;;17.42;73.65;99230.91;343550;28;1067;-77
2022/06/08 00:02:30;;;;;;;5.78;2.47;;;;;;;17.43;73.36;99227.34;344186;28;1063;-77
2022/06/08 00:02:45;;;;;;;5.78;2.80;;;;;;;17.42;73.38;99226.50;344817;28;1072;-77
2022/06/08 00:03:08;;;;;;;5.35;2.70;;;;;;;17.39;73.98;99231.97;344829;28;1070;-77
2022/06/08 00:03:25;;;;;;;6.40;2.83;;;;;;;17.36;74.22;99221.66;343459;28;1208;-77
2022/06/08 00:03:47;;;;;;;5.90;2.85;;;;;;;17.36;74.10;99235.66;343966;28;1090;-77
2022/06/08 00:04:01;;;;;;;4.68;2.38;;;;;;;17.37;73.82;99232.06;343343;28;1007;-78
2022/06/08 00:04:13;;;;;;;4.68;2.20;;;;;;;17.37;73.72;99229.44;343247;28;1584;-77
2022/06/08 00:04:25;;;;;;;3.90;2.28;;;;;;;17.39;73.52;99229.34;343068;28;1805;-79
2022/06/08 00:04:38;;;;;;;4.90;2.40;;;;;;;17.37;73.81;99233.84;343646;28;1026;-78
2022/06/08 00:04:50;;;;;;;5.30;2.40;;;;;;;17.35;74.05;99225.25;343644;28;1051;-77
2022/06/08 00:05:03;;;;;;;6.20;2.75;;;;;;;17.31;74.43;99229.03;343524;28;2138;-79
2022/06/08 00:05:15;;;;;;;5.68;2.80;;;;;;;17.31;74.44;99226.41;343700;28;1614;-78
2022/06/08 00:05:28;;;;;;;5.63;2.90;;;;;;;17.28;74.64;99226.59;343521;28;1065;-77
2022/06/08 00:05:40;;;;;;;5.28;2.80;;;;;;;17.27;74.42;99235.44;343183;28;1289;-77
2022/06/08 00:05:52;;;;;;;5.55;2.80;;;;;;;17.28;74.34;99229.22;343748;28;1086;-77
2022/06/08 00:06:05;;;;;;;4.82;2.70;;;;;;;17.27;74.47;99227.53;343616;28;1225;-78
2022/06/08 00:06:19;;;;;;;5.75;2.95;;;;;;;17.26;74.51;99228.47;343390;28;1637;-77
2022/06/08 00:06:31;;;;;;;5.57;3.00;;;;;;;17.23;74.82;99233.94;343525;28;1201;-77
2022/06/08 00:06:43;;;;;;;4.47;2.97;;;;;;;17.21;75.23;99227.97;343428;28;1034;-77
2022/06/08 00:06:55;;;;;;;5.78;3.05;;;;;;;17.17;75.19;99233.41;342317;28;1067;-77
2022/06/08 00:07:07;;;;;;;6.25;3.00;;;;;;;17.16;75.37;99226.47;341803;28;1799;-79
2022/06/08 00:07:19;;;;;;;5.90;2.92;;;;;;;17.19;75.12;99230.69;341303;29;750;-77
2022/06/08 00:07:32;;;;;;;4.75;2.78;;;;;;;17.16;75.34;99231.72;342614;28;1232;-78
2022/06/08 00:07:44;;;;;;;7.30;2.70;;;;;;;17.16;75.55;99225.63;343597;28;1236;-77
2022/06/08 00:07:56;;;;;;;7.82;2.85;;;;;;;17.16;75.51;99237.00;343559;28;1063;-77
2022/06/08 00:08:08;;;;;;;6.10;2.80;;;;;;;17.16;75.30;99225.63;343596;28;1518;-80
2022/06/08 00:08:20;;;;;;;5.57;2.70;;;;;;;17.16;75.04;99236.13;342490;28;1333;-78
2022/06/08 00:08:32;;;;;;;5.78;2.75;;;;;;;17.17;75.06;99230.78;342808;28;1149;-78
2022/06/08 00:08:45;;;;;;;6.28;2.70;;;;;;;17.19;74.92;99229.84;343612;28;1201;-77
2022/06/08 00:08:57;;;;;;;6.00;2.60;;;;;;;17.20;74.82;99236.78;343892;28;1019;-77
2022/06/08 00:09:09;;;;;;;6.78;2.80;;;;;;;17.20;74.67;99226.25;343936;28;1801;-78
2022/06/08 00:09:21;;;;;;;6.18;2.78;;;;;;;17.19;74.75;99224.59;343391;28;1069;-77
2022/06/08 00:09:33;;;;;;;5.28;2.72;;;;;;;17.20;74.72;99232.34;341882;28;1904;-77
2022/06/08 00:09:45;;;;;;;6.55;2.83;;;;;;;17.20;74.81;99228.88;342091;28;1076;-77
2022/06/08 00:09:59;;;;;;;7.07;2.70;;;;;;;17.21;74.63;99228.78;340892;29;1056;-77
2022/06/08 00:10:12;;;;;;;5.55;2.63;;;;;;;17.21;74.42;99227.97;341102;28;1992;-78
2022/06/08 00:10:24;;;;;;;4.43;2.70;;;;;;;17.20;74.47;99221.84;341762;28;1087;-77
2022/06/08 00:10:36;;;;;;;4.28;2.88;;;;;;;17.21;74.14;99226.16;342204;28;1004;-82
2022/06/08 00:10:48;;;;;;;5.78;3.00;;;;;;;17.23;74.14;99231.31;342285;28;1084;-79
2022/06/08 00:11:00;;;;;;;6.45;2.75;;;;;;;17.23;74.13;99226.06;342206;28;1139;-78
2022/06/08 00:11:13;;;;;;;6.78;2.78;;;;;;;17.23;74.18;99226.91;340925;28;2001;-79
2022/06/08 00:11:25;;;;;;;8.05;3.05;;;;;;;17.24;74.35;99228.56;341456;28;1211;-78
2022/06/08 00:11:37;;;;;;;6.72;2.92;;;;;;;17.25;73.77;99234.69;344102;28;1261;-78
2022/06/08 00:11:49;;;;;;;3.80;2.72;;;;;;;17.25;74.12;99226.81;343404;28;982;-77
2022/06/08 00:12:03;;;;;;;4.95;2.72;;;;;;;17.25;74.24;99225.00;344198;28;1095;-77
2022/06/08 00:12:15;;;;;;;5.60;2.80;;;;;;;17.23;74.48;99231.31;344402;28;1059;-78
2022/06/08 00:12:27;;;;;;;6.13;2.70;;;;;;;17.23;74.32;99228.69;343627;28;1075;-78
2022/06/08 00:12:39;;;;;;;5.63;2.70;;;;;;;17.23;74.35;99231.31;344736;28;1079;-77
2022/06/08 00:12:51;;;;;;;5.28;2.78;;;;;;;17.21;74.25;99227.97;344706;28;1098;-77
2022/06/08 00:13:04;;;;;;;4.55;2.80;;;;;;;17.22;74.24;99229.63;343749;28;1603;-77
2022/06/08 00:13:16;;;;;;;4.03;2.80;;;;;;;17.18;74.68;99228.97;343542;28;1150;-77
2022/06/08 00:13:28;;;;;;;4.78;3.08;;;;;;;17.20;74.42;99227.09;341668;28;1287;-80
2022/06/08 00:13:45;;;;;;;6.85;3.08;;;;;;;17.21;74.41;99227.97;340966;29;1111;-77
2022/06/08 00:13:58;;;;;;;6.00;2.85;;;;;;;17.23;74.38;99226.06;340860;29;1015;-78
2022/06/08 00:14:10;;;;;;;3.72;2.67;;;;;;;17.23;74.24;99231.31;341269;28;1727;-78
2022/06/08 00:14:23;;;;;;;4.03;2.35;;;;;;;17.24;74.28;99222.47;342076;28;1232;-78
2022/06/08 00:14:35;;;;;;;5.20;2.58;;;;;;;17.23;74.28;99228.69;343663;28;1191;-77
2022/06/08 00:14:47;;;;;;;4.63;2.60;;;;;;;17.24;74.28;99220.69;343359;28;1108;-77
2022/06/08 00:14:59;;;;;;;3.78;2.40;;;;;;;17.25;74.20;99229.44;343572;28;1253;-77
2022/06/08 00:15:13;;;;;;;4.10;2.42;;;;;;;17.21;74.52;99222.72;343553;28;1241;-78
2022/06/08 00:15:26;;;;;;;5.57;2.75;;;;;;;17.23;74.47;99228.69;343505;28;1094;-77
2022/06/08 00:15:39;;;;;;;5.22;2.80;;;;;;;17.22;74.32;99221.75;344728;28;1177;-78
2022/06/08 00:15:53;;;;;;;3.53;2.50;;;;;;;17.22;74.22;99225.22;344923;28;1158;-78
2022/06/08 00:16:06;;;;;;;4.20;2.42;;;;;;;17.24;74.09;99233.00;342947;28;2111;-78
2022/06/08 00:16:19;;;;;;;4.60;2.50;;;;;;;17.23;74.61;99228.69;343452;28;1185;-79
2022/06/08 00:16:31;;;;;;;2.92;2.42;;;;;;;17.25;74.03;99224.19;344125;28;1236;-78
2022/06/08 00:16:43;;;;;;;3.08;2.47;;;;;;;17.25;73.76;99216.31;343527;28;1189;-78
2022/06/08 00:16:55;;;;;;;3.65;2.70;;;;;;;17.24;73.88;99227.75;343724;28;1176;-77
2022/06/08 00:17:07;;;;;;;3.78;2.60;;;;;;;17.24;73.88;99222.47;343320;28;1714;-78
2022/06/08 00:17:19;;;;;;;3.78;2.50;;;;;;;17.24;73.67;99222.47;343576;28;1064;-78
2022/06/08 00:17:31;;;;;;;3.97;2.50;;;;;;;17.24;73.88;99219.84;344509;28;1061;-78
2022/06/08 00:17:44;;;;;;;4.50;2.85;;;;;;;17.23;73.65;99223.44;345036;28;1201;-77
2022/06/08 00:17:56;;;;;;;5.97;3.00;;;;;;;17.22;73.90;99224.38;345155;28;908;-77
2022/06/08 00:18:10;;;;;;;5.82;2.78;;;;;;;17.21;74.00;99226.16;342180;28;1677;-78
2022/06/08 00:18:22;;;;;;;4.65;2.58;;;;;;;17.22;73.84;99224.38;340828;29;1015;-77
2022/06/08 00:18:34;;;;;;;3.28;2.40;;;;;;;17.22;73.73;99219.13;343273;28;1095;-77
2022/06/08 00:18:47;;;;;;;4.72;2.50;;;;;;;17.22;73.49;99221.75;343779;28;909;-78
2022/06/08 00:18:59;;;;;;;6.07;2.55;;;;;;;17.23;73.56;99218.19;341845;28;1504;-77
2022/06/08 00:19:11;;;;;;;5.35;2.28;;;;;;;17.24;73.33;99222.47;341558;28;1713;-77
2022/06/08 00:19:23;;;;;;;4.75;2.58;;;;;;;17.22;73.39;99225.22;341172;28;1221;-78
2022/06/08 00:19:35;;;;;;;4.57;2.60;;;;;;;17.22;73.23;99219.13;340870;29;1074;-78
2022/06/08 00:19:48;;;;;;;4.53;2.50;;;;;;;17.22;73.40;99219.94;341464;28;1989;-78
2022/06/08 00:20:00;;;;;;;4.00;2.30;;;;;;;17.22;73.43;99219.94;342145;28;1178;-78
2022/06/08 00:20:12;;;;;;;4.30;2.20;;;;;;;17.24;73.33;99222.47;343257;28;1989;-78
2022/06/08 00:20:25;;;;;;;4.05;2.22;;;;;;;17.24;73.60;99222.47;344757;28;1676;-79
2022/06/08 00:20:38;;;;;;;4.55;2.47;;;;;;;17.24;73.47;99217.22;343544;28;1158;-78
2022/06/08 00:20:51;;;;;;;3.88;2.42;;;;;;;17.25;73.41;99218.94;343056;28;1075;-78
2022/06/08 00:21:03;;;;;;;4.15;2.45;;;;;;;17.25;73.23;99224.19;342266;28;1088;-78
2022/06/08 00:21:16;;;;;;;4.05;2.45;;;;;;;17.24;73.36;99222.47;342946;28;2025;-77
2022/06/08 00:21:28;;;;;;;4.72;2.42;;;;;;;17.23;73.31;99220.81;343342;28;1195;-79
2022/06/08 00:21:41;;;;;;;4.65;2.30;;;;;;;17.24;73.26;99217.22;343496;28;1132;-79
2022/06/08 00:21:53;;;;;;;3.28;2.10;;;;;;;17.22;73.11;99224.38;343363;28;1016;-79
2022/06/08 00:22:05;;;;;;;4.53;2.05;;;;;;;17.21;73.22;99223.53;343569;28;1640;-78
2022/06/08 00:22:17;;;;;;;4.40;2.08;;;;;;;17.22;73.07;99224.38;343272;28;1159;-78
2022/06/08 00:22:29;;;;;;;4.90;2.03;;;;;;;17.20;73.38;99218.38;343199;28;1102;-78
2022/06/08 00:22:42;;;;;;;4.30;2.10;;;;;;;17.21;72.99;99217.44;343357;28;1092;-77
2022/06/08 00:22:54;;;;;;;4.93;2.20;;;;;;;17.19;72.88;99224.59;343038;28;1023;-81
2022/06/08 00:23:06;;;;;;;5.93;2.15;;;;;;;17.20;73.22;99215.75;342562;28;1459;-82
2022/06/08 00:23:18;;;;;;;6.13;2.10;;;;;;;17.17;73.19;99217.63;343340;28;1673;-78
2022/06/08 00:23:31;;;;;;;7.30;2.25;;;;;;;17.16;73.21;99215.97;343848;28;1172;-79
2022/06/08 00:23:44;;;;;;;7.25;2.30;;;;;;;17.15;73.62;99224.78;343633;28;1063;-77
2022/06/08 00:23:56;;;;;;;5.78;2.42;;;;;;;17.16;73.59;99223.84;343121;28;1852;-80
2022/06/08 00:24:08;;;;;;;4.72;2.60;;;;;;;17.14;73.79;99220.50;343036;28;1552;-79
2022/06/08 00:24:21;;;;;;;4.55;2.80;;;;;;;17.11;73.79;99220.69;341997;28;1228;-79
2022/06/08 00:24:33;;;;;;;5.90;2.72;;;;;;;17.13;74.08;99220.59;343163;28;1117;-80
2022/06/08 00:24:45;;;;;;;4.75;2.45;;;;;;;17.11;73.90;99217.22;343439;28;1130;-78
2022/06/08 00:24:57;;;;;;;4.15;2.30;;;;;;;17.11;74.12;99225.94;343324;28;1206;-79
2022/06/08 00:25:11;;;;;;;3.25;2.30;;;;;;;17.12;73.77;99214.50;343138;28;1671;-78
2022/06/08 00:25:23;;;;;;;2.95;2.40;;;;;;;17.09;73.71;99217.31;343351;28;1157;-77
2022/06/08 00:25:36;;;;;;;3.65;2.45;;;;;;;17.07;74.06;99219.19;343866;28;1034;-77
2022/06/08 00:25:48;;;;;;;5.55;2.60;;;;;;;17.07;74.15;99221.00;343726;28;1107;-78
2022/06/08 00:26:01;;;;;;;5.88;2.60;;;;;;;17.08;73.82;99218.28;343168;28;1463;-77
2022/06/08 00:26:13;;;;;;;4.40;2.40;;;;;;;17.08;73.83;99223.53;343152;28;1797;-79
2022/06/08 00:26:25;;;;;;;4.10;2.20;;;;;;;17.08;73.52;99222.66;344571;28;1193;-81
2022/06/08 00:26:37;;;;;;;4.50;2.10;;;;;;;17.09;73.93;99213.84;344923;28;1182;-78
2022/06/08 00:26:49;;;;;;;6.63;2.40;;;;;;;17.07;73.54;99216.56;344978;28;1067;-78
2022/06/08 00:27:01;;;;;;;5.70;2.50;;;;;;;17.06;73.49;99220.13;344901;28;1081;-77
2022/06/08 00:27:13;;;;;;;4.07;2.40;;;;;;;17.07;73.61;99221.81;343882;28;1968;-77
2022/06/08 00:27:25;;;;;;;3.33;2.22;;;;;;;17.07;73.27;99215.75;343407;28;1247;-78
2022/06/08 00:27:38;;;;;;;3.95;2.42;;;;;;;17.09;73.46;99222.56;344883;28;1112;-77
2022/06/08 00:27:50;;;;;;;4.35;2.58;;;;;;;17.08;73.47;99218.28;344852;28;1102;-77
2022/06/08 00:28:02;;;;;;;3.42;2.20;;;;;;;17.09;73.56;99219.09;343493;28;1050;-77
2022/06/08 00:28:15;;;;;;;3.85;2.13;;;;;;;17.08;73.56;99218.28;342071;28;1966;-77
2022/06/08 00:28:28;;;;;;;6.05;2.47;;;;;;;17.09;73.70;99216.47;342630;28;1039;-77
2022/06/08 00:28:40;;;;;;;5.47;2.58;;;;;;;17.08;73.78;99215.66;343417;28;1251;-77
2022/06/08 00:28:53;;;;;;;4.45;2.58;;;;;;;17.08;73.69;99218.28;342099;28;1222;-77
2022/06/08 00:29:05;;;;;;;5.03;2.58;;;;;;;17.07;73.83;99211.31;342179;28;1011;-78
2022/06/08 00:29:18;;;;;;;6.10;2.75;;;;;;;17.05;74.29;99217.63;343908;28;1064;-77
2022/06/08 00:29:31;;;;;;;8.82;2.83;;;;;;;17.05;74.17;99213.22;342667;28;1243;-77
2022/06/08 00:29:43;;;;;;;10.40;2.92;;;;;;;17.03;74.29;99217.72;342149;28;1023;-78
2022/06/08 00:29:55;;;;;;;8.77;2.70;;;;;;;17.01;74.68;99211.72;342245;28;1060;-78
2022/06/08 00:30:09;;;;;;;6.90;2.65;;;;;;;16.99;74.51;99218.03;342403;28;1523;-80
2022/06/08 00:30:21;;;;;;;6.05;2.63;;;;;;;17.01;74.37;99219.59;342527;28;1694;-77
2022/06/08 00:30:33;;;;;;;6.28;2.60;;;;;;;16.99;74.27;99213.63;343898;28;1332;-77
2022/06/08 00:30:45;;;;;;;10.15;2.90;;;;;;;16.99;74.49;99218.88;343773;28;1244;-77
2022/06/08 00:30:58;;;;;;;10.75;2.90;;;;;;;16.99;74.81;99216.25;344561;28;1874;-77
2022/06/08 00:31:11;;;;;;;6.65;2.72;;;;;;;17.01;74.26;99214.34;344606;28;1744;-78
2022/06/08 00:31:23;;;;;;;5.32;2.60;;;;;;;17.01;74.25;99211.72;344888;28;1674;-79
2022/06/08 00:31:35;;;;;;;3.30;2.60;;;;;;;17.00;73.98;99217.91;345915;28;1633;-78
2022/06/08 00:31:47;;;;;;;3.33;2.50;;;;;;;16.98;74.27;99211.91;346288;28;1208;-77
2022/06/08 00:31:59;;;;;;;6.38;2.53;;;;;;;16.98;74.20;99209.28;346167;28;1059;-77
2022/06/08 00:32:11;;;;;;;8.15;2.45;;;;;;;16.96;74.32;99213.81;344771;28;1936;-78
2022/06/08 00:32:23;;;;;;;6.20;2.40;;;;;;;16.97;74.44;99210.25;343712;28;1111;-78
2022/06/08 00:32:36;;;;;;;4.07;2.28;;;;;;;16.99;74.13;99213.63;343793;28;1255;-78
2022/06/08 00:32:48;;;;;;;3.60;2.30;;;;;;;16.98;74.18;99209.28;344807;28;1578;-78
2022/06/08 00:33:00;;;;;;;4.22;2.40;;;;;;;16.99;74.35;99208.38;344234;28;1270;-77
2022/06/08 00:33:12;;;;;;;3.95;2.42;;;;;;;16.97;74.11;99207.63;343631;28;1175;-77
2022/06/08 00:33:24;;;;;;;3.47;2.50;;;;;;;16.96;74.34;99209.41;343619;28;1772;-77
2022/06/08 00:33:36;;;;;;;3.47;2.47;;;;;;;16.94;74.92;99205.19;343853;28;1139;-77
2022/06/08 00:33:48;;;;;;;3.25;2.45;;;;;;;16.94;74.60;99207.81;343132;28;1431;-78
2022/06/08 00:34:01;;;;;;;4.22;2.60;;;;;;;16.94;74.56;99205.19;343289;28;1381;-78
2022/06/08 00:34:13;;;;;;;5.68;2.60;;;;;;;16.93;74.61;99208.78;343518;28;1635;-78
2022/06/08 00:34:25;;;;;;;4.72;2.47;;;;;;;16.92;74.77;99207.06;343706;28;1042;-80
2022/06/08 00:34:37;;;;;;;4.80;2.65;;;;;;;16.89;74.71;99208.13;343691;28;1050;-78
2022/06/08 00:34:49;;;;;;;3.58;2.67;;;;;;;16.92;74.71;99207.06;343349;28;1052;-80
2022/06/08 00:35:02;;;;;;;3.08;2.60;;;;;;;16.90;74.63;99207.19;343061;28;1321;-79
2022/06/08 00:35:15;;;;;;;3.95;2.40;;;;;;;16.89;74.27;99207.28;343115;28;1933;-77
2022/06/08 00:35:27;;;;;;;3.78;2.38;;;;;;;16.88;75.10;99205.59;343681;28;1085;-78
2022/06/08 00:35:39;;;;;;;4.38;2.40;;;;;;;16.89;74.81;99208.13;343566;28;1919;-77
2022/06/08 00:35:51;;;;;;;5.22;2.40;;;;;;;16.88;74.70;99206.47;343331;28;1187;-77
2022/06/08 00:36:04;;;;;;;3.95;2.30;;;;;;;16.88;74.76;99200.34;343435;28;1074;-78
2022/06/08 00:36:16;;;;;;;4.93;2.35;;;;;;;16.90;74.58;99208.97;343118;28;1831;-77
2022/06/08 00:36:28;;;;;;;4.10;2.50;;;;;;;16.89;74.47;99207.28;343672;28;1166;-77
2022/06/08 00:36:40;;;;;;;5.30;2.50;;;;;;;16.89;74.65;99207.28;344822;28;1169;-77
2022/06/08 00:36:52;;;;;;;8.15;2.53;;;;;;;16.85;74.95;99208.44;345240;28;1019;-77
2022/06/08 00:37:04;;;;;;;8.13;2.42;;;;;;;16.86;75.00;99199.59;346238;28;1055;-77
2022/06/08 00:37:16;;;;;;;6.03;2.40;;;;;;;16.85;74.74;99204.03;344338;28;1790;-77
2022/06/08 00:37:28;;;;;;;2.83;2.20;;;;;;;16.86;74.69;99207.47;344662;28;1152;-77
2022/06/08 00:37:41;;;;;;;3.60;2.20;;;;;;;16.87;74.71;99203.94;343644;28;1185;-77
2022/06/08 00:37:53;;;;;;;3.58;2.20;;;;;;;16.88;74.20;99200.34;343813;28;1019;-79
2022/06/08 00:38:05;;;;;;;3.13;2.20;;;;;;;16.86;74.54;99203.09;343507;28;1021;-78
2022/06/08 00:38:17;;;;;;;2.95;2.30;;;;;;;16.83;74.77;99207.69;342982;28;1727;-78
2022/06/08 00:38:29;;;;;;;3.60;2.38;;;;;;;16.81;75.14;99209.56;343646;28;1148;-78
2022/06/08 00:38:41;;;;;;;4.15;2.53;;;;;;;16.78;75.10;99211.44;343631;28;1249;-78
2022/06/08 00:38:53;;;;;;;3.45;2.60;;;;;;;16.76;75.69;99208.06;342178;28;1108;-77
2022/06/08 00:39:05;;;;;;;3.50;2.60;;;;;;;16.74;75.67;99199.47;342178;28;1060;-78
2022/06/08 00:39:17;;;;;;;4.75;2.60;;;;;;;16.73;75.50;99203.00;341898;28;1407;-79
2022/06/08 00:39:29;;;;;;;4.72;2.50;;;;;;;16.76;75.28;99202.81;342638;28;1202;-78
2022/06/08 00:39:41;;;;;;;5.10;2.47;;;;;;;16.77;75.04;99204.50;342457;28;1119;-77
2022/06/08 00:39:54;;;;;;;4.80;2.60;;;;;;;16.79;74.85;99201.78;343513;28;1221;-78
2022/06/08 00:40:08;;;;;;;4.30;2.45;;;;;;;16.76;74.75;99201.97;343443;28;1051;-78
2022/06/08 00:40:24;;;;;;;3.45;2.25;;;;;;;16.75;74.90;99211.63;343210;28;1706;-78
2022/06/08 00:41:12;;;;;;;4.55;2.40;;;;;;;16.73;75.07;99200.38;342339;28;1087;-77
2022/06/08 00:41:38;;;;;;;5.00;2.58;;;;;;;16.69;75.21;99204.16;337873;29;1290;-79
2022/06/08 00:41:54;;;;;;;5.47;2.28;;;;;;;16.67;75.32;99200.78;337909;29;1239;-77
2022/06/08 00:42:10;;;;;;;5.57;2.33;;;;;;;16.65;75.69;99199.22;337935;29;1043;-78
2022/06/08 00:42:25;;;;;;;3.47;2.45;;;;;;;16.64;75.72;99203.63;343528;28;1181;-77
2022/06/08 00:42:39;;;;;;;2.55;2.35;;;;;;;16.64;75.63;99201.00;343538;28;1217;-78
2022/06/08 00:42:51;;;;;;;2.95;2.20;;;;;;;16.64;76.00;99201.00;343666;28;1187;-77
2022/06/08 00:43:03;;;;;;;4.20;2.38;;;;;;;16.64;75.83;99206.25;343678;28;1070;-77
2022/06/08 00:43:16;;;;;;;4.35;2.38;;;;;;;16.64;75.95;99201.00;342137;28;2133;-78
2022/06/08 00:43:28;;;;;;;3.50;2.22;;;;;;;16.64;75.90;99208.00;342507;28;1219;-77
2022/06/08 00:43:41;;;;;;;4.30;2.20;;;;;;;16.64;75.67;99203.63;342239;28;1219;-79
2022/06/08 00:43:55;;;;;;;4.55;2.30;;;;;;;16.64;75.84;99197.50;343272;28;984;-78
2022/06/08 00:44:30;;;;;;;5.05;2.50;;;;;;;16.62;75.69;99200.25;343685;28;1934;-80
2022/06/08 00:44:47;;;;;;;5.90;2.60;;;;;;;16.58;76.25;99204.84;344595;28;1911;-79
2022/06/08 00:45:08;;;;;;;5.38;2.78;;;;;;;16.57;76.08;99200.53;343692;28;1198;-78
2022/06/08 00:45:23;;;;;;;7.72;2.60;;;;;;;16.56;76.02;99201.50;342496;28;1114;-77
2022/06/08 00:45:36;;;;;;;4.18;2.30;;;;;;;16.59;75.60;99205.69;344001;28;1283;-80
2022/06/08 00:45:48;;;;;;;2.88;2.20;;;;;;;16.60;75.63;99199.50;343823;28;1286;-78
2022/06/08 00:46:02;;;;;;;2.88;2.10;;;;;;;16.63;75.45;99207.16;343543;28;1107;-77
2022/06/08 00:46:14;;;;;;;2.90;2.10;;;;;;;16.65;75.17;99205.28;343205;28;1999;-77
2022/06/08 00:46:27;;;;;;;2.72;2.00;;;;;;;16.66;74.91;99201.75;343714;28;1238;-77
2022/06/08 00:46:40;;;;;;;2.40;2.10;;;;;;;16.67;74.87;99208.66;344789;28;1022;-77
2022/06/08 00:46:54;;;;;;;2.67;2.05;;;;;;;16.69;74.97;99206.78;344922;28;1229;-77
2022/06/08 00:47:09;;;;;;;4.00;2.20;;;;;;;16.70;74.63;99203.22;344167;28;1006;-77
2022/06/08 00:47:30;;;;;;;4.05;2.20;;;;;;;16.71;74.63;99199.63;343464;28;1130;-77
2022/06/08 00:48:05;;;;;;;4.78;1.90;;;;;;;16.73;74.14;99203.00;342272;28;897;-78
2022/06/08 00:48:17;;;;;;;2.72;1.90;;;;;;;16.74;74.17;99204.69;343418;28;1742;-80
2022/06/08 00:48:34;;;;;;;2.75;1.98;;;;;;;16.74;73.95;99202.09;344037;28;1679;-78
2022/06/08 00:48:52;;;;;;;2.75;2.00;;;;;;;16.75;73.96;99205.53;343812;28;1767;-79
2022/06/08 00:49:16;;;;;;;4.70;2.03;;;;;;;16.73;73.84;99192.50;344317;28;1147;-78
2022/06/08 00:49:40;;;;;;;4.00;2.08;;;;;;;16.74;74.01;99203.84;342643;28;1389;-78
2022/06/08 00:50:00;;;;;;;2.45;2.10;;;;;;;16.73;74.12;99208.25;341953;28;1051;-78
2022/06/08 00:50:28;;;;;;;3.53;2.40;;;;;;;16.72;74.08;99201.34;342949;28;2081;-79
2022/06/08 00:50:44;;;;;;;5.88;2.30;;;;;;;16.72;74.19;99201.34;343665;28;1256;-78
2022/06/08 00:50:57;;;;;;;3.80;2.00;;;;;;;16.74;74.17;99198.59;343962;28;1098;-78
2022/06/08 00:51:09;;;;;;;2.60;1.98;;;;;;;16.72;73.91;99198.72;343188;28;1356;-79
2022/06/08 00:51:21;;;;;;;3.90;2.10;;;;;;;16.72;74.03;99198.72;342459;28;1158;-78
2022/06/08 00:51:33;;;;;;;5.40;2.28;;;;;;;16.72;73.97;99196.09;343653;28;1078;-78
2022/06/08 00:51:46;;;;;;;5.25;2.30;;;;;;;16.72;73.88;99201.34;343712;28;1178;-78
2022/06/08 00:52:00;;;;;;;5.90;2.20;;;;;;;16.73;73.82;99202.16;343781;28;1203;-79
2022/06/08 00:52:14;;;;;;;6.80;2.35;;;;;;;16.70;73.65;99203.22;343049;28;1936;-78
2022/06/08 00:52:28;;;;;;;5.55;2.42;;;;;;;16.71;73.64;99201.44;343811;28;911;-78
2022/06/08 00:52:42;;;;;;;5.20;2.25;;;;;;;16.70;73.61;99197.97;344846;28;1023;-78
2022/06/08 00:52:55;;;;;;;4.72;2.17;;;;;;;16.70;73.67;99197.97;344627;28;1168;-78
2022/06/08 00:53:11;;;;;;;4.47;2.40;;;;;;;16.71;73.75;99196.19;344615;28;1682;-81
2022/06/08 00:53:38;;;;;;;3.80;2.20;;;;;;;16.64;73.75;99195.75;343093;28;1722;-78
2022/06/08 00:53:55;;;;;;;4.97;2.60;;;;;;;16.62;73.81;99194.16;342640;28;855;-80
2022/06/08 00:54:12;;;;;;;3.63;2.20;;;;;;;16.61;73.79;99195.94;342366;28;1823;-81
2022/06/08 00:54:31;;;;;;;3.85;2.00;;;;;;;16.62;73.94;99194.16;343739;28;1189;-79
2022/06/08 00:54:48;;;;;;;3.58;2.05;;;;;;;16.61;73.95;99201.19;342508;28;1189;-79
2022/06/08 00:55:08;;;;;;;3.92;2.20;;;;;;;16.62;74.09;99197.63;342497;28;963;-78
2022/06/08 00:55:23;;;;;;;2.97;2.13;;;;;;;16.62;74.02;99200.25;343833;28;874;-80
2022/06/08 00:55:38;;;;;;;2.13;1.90;;;;;;;16.60;73.81;99199.50;343323;28;1777;-80
2022/06/08 00:55:50;;;;;;;4.50;2.25;;;;;;;16.61;73.81;99193.31;343637;28;1232;-80
2022/06/08 00:56:05;;;;;;;5.35;2.35;;;;;;;16.62;73.97;99189.75;343333;28;1475;-80
2022/06/08 00:56:20;;;;;;;4.80;2.30;;;;;;;16.60;73.62;99194.25;342741;28;1958;-79
2022/06/08 00:56:38;;;;;;;3.10;2.30;;;;;;;16.58;73.83;99189.09;343479;28;1120;-78
2022/06/08 00:56:57;;;;;;;4.22;2.13;;;;;;;16.58;73.86;99198.78;343605;28;1075;-79
2022/06/08 00:57:42;;;;;;;4.07;1.90;;;;;;;16.57;74.03;99191.81;344773;28;1082;-80
2022/06/08 00:58:05;;;;;;;3.65;2.10;;;;;;;16.56;74.15;99190.16;343620;28;1014;-79
2022/06/08 00:58:24;;;;;;;3.30;2.13;;;;;;;16.58;74.18;99202.22;344270;28;1856;-80
2022/06/08 00:58:37;;;;;;;3.45;2.30;;;;;;;16.59;73.87;99195.19;343766;28;1070;-78
2022/06/08 00:58:50;;;;;;;3.17;2.30;;;;;;;16.59;73.88;99189.94;343412;28;1141;-78
2022/06/08 00:59:05;;;;;;;2.85;2.20;;;;;;;16.57;74.21;99197.91;343320;28;1172;-78
2022/06/08 00:59:17;;;;;;;2.70;2.20;;;;;;;16.58;74.23;99199.59;343457;28;1786;-79
2022/06/08 00:59:30;;;;;;;2.75;2.17;;;;;;;16.58;74.19;99194.34;343683;28;1403;-79
2022/06/08 00:59:59;;;;;;;2.85;2.00;;;;;;;16.60;74.32;99191.66;342638;28;1471;-79
2022/06/08 01:00:15;;;;;;;3.38;2.25;;;;;;;16.60;74.28;99196.88;343631;28;1958;-79
2022/06/08 01:00:31;;;;;;;4.63;2.30;;;;;;;16.61;74.34;99198.56;343018;28;1168;-79
2022/06/08 01:00:43;;;;;;;4.50;2.20;;;;;;;16.61;74.24;99197.72;343785;28;837;-78
2022/06/08 01:00:58;;;;;;;3.53;2.13;;;;;;;16.59;74.13;99195.19;343471;28;1258;-78
2022/06/08 01:01:11;;;;;;;3.15;1.80;;;;;;;16.60;74.14;99199.50;343189;28;1708;-79
2022/06/08 01:01:23;;;;;;;3.47;1.90;;;;;;;16.61;73.91;99203.81;343404;28;1059;-79
2022/06/08 01:01:36;;;;;;;3.67;2.22;;;;;;;16.60;73.82;99199.50;342146;28;1205;-78
2022/06/08 01:01:48;;;;;;;3.53;2.30;;;;;;;16.60;73.43;99194.25;343097;28;1055;-79
2022/06/08 01:02:00;;;;;;;3.70;2.22;;;;;;;16.60;73.62;99199.50;343501;28;1257;-79
2022/06/08 01:02:13;;;;;;;4.10;2.25;;;;;;;16.58;73.90;99193.53;343101;28;1088;-79
2022/06/08 01:02:25;;;;;;;4.00;2.17;;;;;;;16.58;73.78;99196.16;343032;28;1498;-82
2022/06/08 01:02:38;;;;;;;2.95;2.10;;;;;;;16.57;74.18;99197.06;343161;28;1155;-79
2022/06/08 01:02:50;;;;;;;3.47;2.28;;;;;;;16.58;74.15;99198.78;343354;28;1903;-79
2022/06/08 01:03:02;;;;;;;3.65;2.40;;;;;;;16.57;74.37;99191.81;343396;28;1080;-79
2022/06/08 01:03:14;;;;;;;3.30;2.45;;;;;;;16.58;74.44;99191.72;343018;28;2249;-79
2022/06/08 01:03:27;;;;;;;2.80;2.30;;;;;;;16.57;74.29;99197.06;342637;28;1628;-78
2022/06/08 01:03:40;;;;;;;3.17;2.20;;;;;;;16.55;74.22;99196.34;343535;28;1023;-79
2022/06/08 01:04:05;;;;;;;3.58;2.20;;;;;;;16.56;73.97;99195.41;343301;28;1179;-78
2022/06/08 01:04:20;;;;;;;3.60;2.05;;;;;;;16.55;73.87;99193.72;343190;28;2033;-79
2022/06/08 01:04:34;;;;;;;2.78;1.95;;;;;;;16.55;73.94;99198.97;341567;28;1154;-78
2022/06/08 01:04:46;;;;;;;2.20;2.00;;;;;;;16.55;74.04;99198.97;341117;28;1059;-78
2022/06/08 01:05:22;;;;;;;2.17;1.98;;;;;;;16.54;74.11;99192.88;340339;29;1522;-79
2022/06/08 01:05:46;;;;;;;3.55;2.08;;;;;;;16.53;74.18;99192.97;341600;28;1866;-78
2022/06/08 01:06:06;;;;;;;4.93;2.20;;;;;;;16.53;74.25;99195.59;342067;28;1075;-79
2022/06/08 01:06:24;;;;;;;3.22;2.33;;;;;;;16.46;74.70;99194.28;340614;29;1773;-79
2022/06/08 01:06:37;;;;;;;2.95;2.53;;;;;;;16.41;74.87;99188.50;342413;28;1116;-79
2022/06/08 01:06:55;;;;;;;4.35;2.70;;;;;;;16.40;74.81;99192.06;344506;28;1561;-78
2022/06/08 01:07:07;;;;;;;3.97;2.67;;;;;;;16.38;74.92;99186.94;344776;28;1236;-80
2022/06/08 01:07:21;;;;;;;2.60;2.33;;;;;;;16.35;74.88;99189.75;344312;28;1759;-79
2022/06/08 01:07:33;;;;;;;3.47;2.20;;;;;;;16.33;75.24;99187.22;344703;28;1467;-79
2022/06/08 01:07:46;;;;;;;3.33;2.20;;;;;;;16.32;75.23;99192.56;343281;28;1023;-78